Langdon, New Hampshire
Current Conditions -  °F | °C
As of 9:35 PM on Wednesday 22 Oct 2014 (Local Time) from KEEN Reporting Station
Overcast Overcast  
Wind Chill: 43°   Ceiling: 1700
Heat Index: 48°   Visibility: 10mi
Dew Point: 39°   Wind: 13mph
Humidity: 71%   Direction: 10°N
Pressure: 29.93"   Gusts: 17mph
Location:  43.1141°N, 72.3097°W
Report Text: KEEN 230135Z AUTO 01011G15KT 10SM OVC017 09/04 A2993 RMK AO1 P0001
Loading
Personal Weather Stations






























Interactive Weather Map
Tropical Storm Tracking
New forecast layout! Learn more

10-Day Weather Forecast

Advertisements
Track Severe Weather on mobile